Time;durP1;ratioP1;P1;durP2;ratioP2;P2;SDS_P1;SDS_P2;PMS_P1;PMS_P2;Temp;Humidity;BMP_temperature;BMP_pressure;BME280_temperature;BME280_humidity;BME280_pressure;Samples;Min_cycle;Max_cycle;Signal;HPM_P1;HPM_P2
2021/12/29 00:00:05;;;;;;;261.70;245.17;;;9.80;99.90;;;;;;5062997;28;20280;-82
2021/12/29 00:02:30;;;;;;;254.90;238.80;;;9.80;99.90;;;;;;5032568;28;20201;-82
2021/12/29 00:04:56;;;;;;;258.97;242.77;;;9.90;99.90;;;;;;5043859;28;20231;-82
2021/12/29 00:07:23;;;;;;;256.27;239.97;;;9.90;99.90;;;;;;5062301;28;20193;-82
2021/12/29 00:09:50;;;;;;;254.67;239.27;;;9.90;99.90;;;;;;5048916;28;20189;-82
2021/12/29 00:12:23;;;;;;;250.73;235.10;;;9.90;99.90;;;;;;5045399;28;20207;-81
2021/12/29 00:14:49;;;;;;;244.73;229.40;;;9.90;99.90;;;;;;5060366;28;20288;-81
2021/12/29 00:17:14;;;;;;;244.80;230.20;;;9.90;99.90;;;;;;5044737;28;20308;-81
2021/12/29 00:19:40;;;;;;;243.00;227.93;;;9.90;99.90;;;;;;5026180;28;20612;-81
2021/12/29 00:22:05;;;;;;;244.23;229.43;;;9.90;99.90;;;;;;5027027;28;20659;-81
2021/12/29 00:24:31;;;;;;;242.60;227.30;;;9.90;99.90;;;;;;5078624;28;20228;-81
2021/12/29 00:26:57;;;;;;;247.60;232.20;;;9.90;99.90;;;;;;5031614;28;20235;-80
2021/12/29 00:29:22;;;;;;;256.00;240.33;;;9.90;99.90;;;;;;5028032;28;20230;-81
2021/12/29 00:31:48;;;;;;;253.70;237.63;;;9.90;99.90;;;;;;5047415;28;20185;-81
2021/12/29 00:34:14;;;;;;;252.57;236.77;;;9.80;99.90;;;;;;5045069;28;20261;-80
2021/12/29 00:36:39;;;;;;;246.37;230.80;;;9.90;99.90;;;;;;5044163;28;21274;-81
2021/12/29 00:39:05;;;;;;;250.53;235.10;;;9.80;99.90;;;;;;5079351;28;20197;-81
2021/12/29 00:41:31;;;;;;;250.27;235.53;;;9.90;99.90;;;;;;5061441;28;20209;-81
2021/12/29 00:43:57;;;;;;;262.90;247.13;;;9.80;99.90;;;;;;5026398;28;20208;-81
2021/12/29 00:46:23;;;;;;;270.83;254.67;;;9.80;99.90;;;;;;5026666;28;20182;-80
2021/12/29 00:48:49;;;;;;;267.40;250.40;;;9.80;99.90;;;;;;5043480;28;20558;-82
2021/12/29 00:51:15;;;;;;;277.77;260.73;;;9.80;99.90;;;;;;5046153;28;20185;-81
2021/12/29 00:53:41;;;;;;;270.23;254.03;;;9.80;99.90;;;;;;5057510;28;20197;-82
2021/12/29 00:56:08;;;;;;;270.13;253.73;;;9.80;99.90;;;;;;5060574;28;20658;-82
2021/12/29 00:58:35;;;;;;;277.07;260.60;;;9.80;99.90;;;;;;5059132;28;20224;-80
2021/12/29 01:01:03;;;;;;;294.17;276.03;;;9.80;99.90;;;;;;5061300;28;20189;-81
2021/12/29 01:03:30;;;;;;;298.13;279.43;;;9.80;99.90;;;;;;5044887;28;20688;-81
2021/12/29 01:05:56;;;;;;;316.60;296.30;;;9.70;99.90;;;;;;5045784;28;20338;-80
2021/12/29 01:08:22;;;;;;;314.70;294.30;;;9.70;99.90;;;;;;5044530;28;20277;-82
2021/12/29 01:10:48;;;;;;;321.83;300.53;;;9.70;99.90;;;;;;5029909;28;20195;-81
2021/12/29 01:13:19;;;;;;;338.47;315.97;;;9.70;99.90;;;;;;5043421;28;21003;-81
2021/12/29 01:18:30;;;;;;;369.17;343.03;;;9.70;99.90;;;;;;5080728;28;20193;-79
2021/12/29 01:20:56;;;;;;;506.80;468.87;;;9.70;99.90;;;;;;5077869;28;20557;-81
2021/12/29 01:23:23;;;;;;;489.93;453.23;;;9.70;99.90;;;;;;5062693;28;20208;-82
2021/12/29 01:25:48;;;;;;;535.67;495.17;;;9.60;99.90;;;;;;5079441;28;20176;-80
2021/12/29 01:28:14;;;;;;;544.63;503.07;;;9.60;99.90;;;;;;5079403;28;20209;-81
2021/12/29 01:30:40;;;;;;;565.03;521.47;;;9.60;99.90;;;;;;5030005;28;20193;-81
2021/12/29 01:33:06;;;;;;;563.23;520.10;;;9.60;99.90;;;;;;5058876;28;20706;-81
2021/12/29 01:35:33;;;;;;;573.23;529.10;;;9.60;99.90;;;;;;5059961;28;20196;-80
2021/12/29 01:38:00;;;;;;;572.80;528.80;;;9.60;99.90;;;;;;5044567;28;20189;-81
2021/12/29 01:40:26;;;;;;;583.30;537.90;;;9.60;99.90;;;;;;5041829;28;20727;-82
2021/12/29 01:42:52;;;;;;;588.33;542.90;;;9.60;99.90;;;;;;5058756;28;20579;-80
2021/12/29 01:45:18;;;;;;;595.13;549.10;;;9.60;99.90;;;;;;5044013;28;20190;-82
2021/12/29 01:47:44;;;;;;;602.10;555.43;;;9.60;99.90;;;;;;5061498;28;20193;-81
2021/12/29 01:50:11;;;;;;;602.57;555.70;;;9.60;99.90;;;;;;5078788;28;20181;-82
2021/12/29 01:52:41;;;;;;;589.37;543.57;;;9.60;99.90;;;;;;5060688;28;20204;-80
2021/12/29 01:55:11;;;;;;;596.07;549.57;;;9.60;99.90;;;;;;5078353;28;20245;-82
2021/12/29 01:57:38;;;;;;;595.10;549.17;;;9.50;99.90;;;;;;5059662;28;20204;-82
2021/12/29 02:00:09;;;;;;;597.93;551.20;;;9.50;99.90;;;;;;5061153;28;20177;-81
2021/12/29 02:02:35;;;;;;;596.27;550.13;;;9.50;99.90;;;;;;5061051;28;20272;-81
2021/12/29 02:05:02;;;;;;;611.43;563.53;;;9.50;99.90;;;;;;5045140;28;20545;-81
2021/12/29 02:07:28;;;;;;;613.40;565.20;;;9.50;99.90;;;;;;5058848;28;20305;-81
2021/12/29 02:09:54;;;;;;;620.03;571.37;;;9.60;99.90;;;;;;5042519;28;20656;-81
2021/12/29 02:12:20;;;;;;;666.40;614.07;;;9.50;99.90;;;;;;5058768;28;20692;-81
2021/12/29 02:14:46;;;;;;;671.67;619.00;;;9.50;99.90;;;;;;5025255;28;20213;-81
2021/12/29 02:17:13;;;;;;;665.30;612.70;;;9.50;99.90;;;;;;5056972;28;20191;-82
2021/12/29 02:19:46;;;;;;;669.97;617.60;;;9.50;99.90;;;;;;5042459;28;20212;-81
2021/12/29 02:22:32;;;;;;;670.67;618.17;;;9.50;99.90;;;;;;5059867;28;20215;-80
2021/12/29 02:27:44;;;;;;;668.40;615.43;;;9.50;99.90;;;;;;5076640;28;20243;-80
2021/12/29 02:30:14;;;;;;;664.70;612.50;;;9.50;99.90;;;;;;5060609;28;20238;-80
2021/12/29 02:32:39;;;;;;;667.73;615.37;;;9.50;99.90;;;;;;5059793;28;20738;-81
2021/12/29 02:35:07;;;;;;;673.60;620.80;;;9.50;99.90;;;;;;5043688;28;20272;-81
2021/12/29 02:37:33;;;;;;;670.10;617.60;;;9.50;99.90;;;;;;5075495;28;20177;-82
2021/12/29 02:39:59;;;;;;;668.90;616.57;;;9.50;99.90;;;;;;5027254;28;20190;-80
2021/12/29 02:42:28;;;;;;;670.53;617.67;;;9.50;99.90;;;;;;5057447;28;20517;-81
2021/12/29 02:44:54;;;;;;;669.87;617.07;;;9.50;99.90;;;;;;5025947;28;20267;-80
2021/12/29 02:47:20;;;;;;;666.17;613.53;;;9.50;99.90;;;;;;5043537;28;20300;-80
2021/12/29 02:49:47;;;;;;;662.27;610.03;;;9.50;99.90;;;;;;5043419;28;20239;-81
2021/12/29 02:52:14;;;;;;;666.63;614.13;;;9.50;99.90;;;;;;5059194;28;20177;-82
2021/12/29 02:54:40;;;;;;;667.80;615.33;;;9.50;99.90;;;;;;5009836;28;20194;-79
2021/12/29 02:57:06;;;;;;;671.43;618.50;;;9.50;99.90;;;;;;5076901;28;20208;-81
2021/12/29 02:59:32;;;;;;;670.83;618.07;;;9.50;99.90;;;;;;5058723;28;20279;-81
2021/12/29 03:01:58;;;;;;;673.93;621.10;;;9.50;99.90;;;;;;5041900;28;20204;-81
2021/12/29 03:04:23;;;;;;;668.33;615.40;;;9.50;99.90;;;;;;5074909;28;20224;-80
2021/12/29 03:06:49;;;;;;;676.17;623.23;;;9.40;99.90;;;;;;5028758;28;20205;-81
2021/12/29 03:09:18;;;;;;;674.07;620.63;;;9.50;99.90;;;;;;5024223;28;20648;-81
2021/12/29 03:11:46;;;;;;;675.70;622.77;;;9.40;99.90;;;;;;5061014;28;20658;-81
2021/12/29 03:14:14;;;;;;;672.10;619.13;;;9.40;99.90;;;;;;5077402;28;20201;-80
2021/12/29 03:16:40;;;;;;;675.50;622.33;;;9.40;99.90;;;;;;5041921;28;20684;-79
2021/12/29 03:19:06;;;;;;;669.00;616.20;;;9.40;99.90;;;;;;5024695;28;20661;-80
2021/12/29 03:21:34;;;;;;;668.60;615.90;;;9.40;99.90;;;;;;5042489;28;20189;-81
2021/12/29 03:24:01;;;;;;;670.70;617.80;;;9.40;99.90;;;;;;5056459;28;20292;-81
2021/12/29 03:26:27;;;;;;;664.00;611.30;;;9.40;99.90;;;;;;5043383;28;20630;-80
2021/12/29 03:28:53;;;;;;;667.83;614.83;;;9.30;99.90;;;;;;5041901;28;20273;-81
2021/12/29 03:31:21;;;;;;;661.07;608.27;;;9.30;99.90;;;;;;5078122;28;20185;-81
2021/12/29 03:33:48;;;;;;;667.43;614.37;;;9.30;99.90;;;;;;5054290;28;20312;-81
2021/12/29 03:36:15;;;;;;;667.97;615.00;;;9.30;99.90;;;;;;5077354;28;20689;-81
2021/12/29 03:38:43;;;;;;;670.83;617.57;;;9.30;99.90;;;;;;5056183;28;20208;-81
2021/12/29 03:41:12;;;;;;;668.33;615.13;;;9.30;99.90;;;;;;5057038;28;20195;-80
2021/12/29 03:43:40;;;;;;;671.17;618.30;;;9.30;99.90;;;;;;5055124;28;20717;-81
2021/12/29 03:46:07;;;;;;;672.40;619.13;;;9.30;99.90;;;;;;5074687;28;20200;-81
2021/12/29 03:48:35;;;;;;;674.57;621.50;;;9.30;99.90;;;;;;5055718;28;20423;-81
2021/12/29 03:51:00;;;;;;;676.37;622.67;;;9.30;99.90;;;;;;5056953;28;20203;-81
2021/12/29 03:53:26;;;;;;;669.47;616.63;;;9.30;99.90;;;;;;5040336;28;20189;-81
2021/12/29 03:55:52;;;;;;;668.77;616.13;;;9.30;99.90;;;;;;5057746;28;20695;-80
2021/12/29 03:58:20;;;;;;;662.07;609.13;;;9.30;99.90;;;;;;5057717;28;20219;-81
2021/12/29 04:00:47;;;;;;;671.27;618.13;;;9.40;99.90;;;;;;5075916;28;20706;-81
2021/12/29 04:03:13;;;;;;;667.13;614.50;;;9.30;99.90;;;;;;5028184;28;20269;-80
2021/12/29 04:05:39;;;;;;;665.20;612.63;;;9.30;99.90;;;;;;5059456;28;20181;-80
2021/12/29 04:08:05;;;;;;;674.37;621.90;;;9.40;99.90;;;;;;5079589;28;20567;-81
2021/12/29 04:10:31;;;;;;;662.27;610.73;;;9.40;99.90;;;;;;5043431;28;20173;-81
2021/12/29 04:12:57;;;;;;;657.37;606.53;;;9.40;99.90;;;;;;5060587;28;20291;-81
2021/12/29 04:15:25;;;;;;;656.43;605.40;;;9.40;99.90;;;;;;5043668;28;20783;-80
2021/12/29 04:17:58;;;;;;;651.33;600.33;;;9.40;99.90;;;;;;5046842;28;20185;-82
2021/12/29 04:23:14;;;;;;;650.27;599.50;;;9.50;99.90;;;;;;5080419;28;20554;-79
2021/12/29 04:25:41;;;;;;;650.17;599.37;;;9.40;99.90;;;;;;5076113;28;20188;-81
2021/12/29 04:28:13;;;;;;;655.90;604.47;;;9.40;99.90;;;;;;5060354;28;20213;-81
2021/12/29 04:30:38;;;;;;;652.40;601.27;;;9.40;99.90;;;;;;5031061;28;20217;-81
2021/12/29 04:33:04;;;;;;;654.27;602.60;;;9.30;99.90;;;;;;5062103;28;20197;-80
2021/12/29 04:35:30;;;;;;;650.27;599.27;;;9.30;99.90;;;;;;5044502;28;20288;-80
2021/12/29 04:37:56;;;;;;;650.40;599.07;;;9.30;99.90;;;;;;5078519;28;20320;-79
2021/12/29 04:40:22;;;;;;;651.23;599.93;;;9.30;99.90;;;;;;5045595;28;20308;-81
2021/12/29 04:42:48;;;;;;;647.77;596.47;;;9.40;99.90;;;;;;5045569;28;20217;-80
2021/12/29 04:45:15;;;;;;;662.30;610.57;;;9.30;99.90;;;;;;5060036;28;20248;-81
2021/12/29 04:47:42;;;;;;;657.63;606.63;;;9.30;99.90;;;;;;5059723;28;20327;-80
2021/12/29 04:50:24;;;;;;;653.63;602.87;;;9.30;99.90;;;;;;5042204;28;20318;-81
2021/12/29 04:52:51;;;;;;;638.30;587.33;;;9.30;99.90;;;;;;5063985;28;20216;-80
2021/12/29 04:55:16;;;;;;;639.00;588.47;;;9.30;99.90;;;;;;5056906;28;20215;-80
2021/12/29 04:57:42;;;;;;;632.63;582.43;;;9.30;99.90;;;;;;5043047;28;20238;-80
2021/12/29 05:00:08;;;;;;;631.17;581.00;;;9.40;99.90;;;;;;5061571;28;20193;-81
2021/12/29 05:02:34;;;;;;;521.43;480.40;;;9.40;99.90;;;;;;5041138;28;20759;-81
2021/12/29 05:05:08;;;;;;;512.87;472.20;;;9.40;99.90;;;;;;5012180;28;20367;-82
2021/12/29 05:08:34;;;;;;;516.53;476.23;;;9.40;99.90;;;;;;5029652;28;20185;-82
2021/12/29 05:10:30;;;;;;;512.10;472.93;;;9.40;99.90;;;;;;5043915;28;20212;-81
2021/12/29 05:12:56;;;;;;;510.10;470.37;;;9.40;99.90;;;;;;5042987;28;20212;-80
2021/12/29 05:15:21;;;;;;;506.17;466.77;;;9.50;99.90;;;;;;5044838;28;20204;-82
2021/12/29 05:17:47;;;;;;;502.03;464.00;;;9.40;99.90;;;;;;5040921;28;20201;-80
2021/12/29 05:20:13;;;;;;;492.03;454.90;;;9.50;99.90;;;;;;5027129;28;20229;-81
2021/12/29 05:22:38;;;;;;;479.07;442.40;;;9.50;99.90;;;;;;5026189;28;20324;-80
2021/12/29 05:25:05;;;;;;;483.70;447.33;;;9.50;99.90;;;;;;5058903;28;20224;-81
2021/12/29 05:27:30;;;;;;;472.77;437.10;;;9.50;99.90;;;;;;5060025;28;20658;-81
2021/12/29 05:29:56;;;;;;;461.17;425.93;;;9.50;99.90;;;;;;5043113;28;20771;-81
2021/12/29 05:32:22;;;;;;;457.20;422.17;;;9.50;99.90;;;;;;5041024;28;20666;-82
2021/12/29 05:34:47;;;;;;;441.47;408.50;;;9.50;99.90;;;;;;5025054;28;20213;-81
2021/12/29 05:37:13;;;;;;;430.50;398.87;;;9.50;99.90;;;;;;5042155;28;20566;-81
2021/12/29 05:39:39;;;;;;;420.27;389.77;;;9.50;99.90;;;;;;5025572;28;20193;-81
2021/12/29 05:42:06;;;;;;;424.40;393.90;;;9.50;99.90;;;;;;5043503;28;20217;-81
2021/12/29 05:44:31;;;;;;;409.07;379.20;;;9.50;99.90;;;;;;5078278;28;20213;-81
2021/12/29 05:46:57;;;;;;;399.90;371.60;;;9.50;99.90;;;;;;5026972;28;20197;-81
2021/12/29 05:49:23;;;;;;;393.03;364.93;;;9.50;99.90;;;;;;5026209;28;20189;-80
2021/12/29 05:51:48;;;;;;;387.50;360.00;;;9.50;99.90;;;;;;5042633;28;20189;-80
2021/12/29 05:54:14;;;;;;;390.97;363.60;;;9.50;99.90;;;;;;5043452;28;20185;-81
2021/12/29 05:59:08;;;;;;;378.50;352.17;;;9.50;99.90;;;;;;5038798;28;20548;-81
2021/12/29 06:01:34;;;;;;;376.60;351.03;;;9.50;99.90;;;;;;5009399;28;20190;-80
2021/12/29 06:04:00;;;;;;;368.97;343.77;;;9.50;99.90;;;;;;5024379;28;20214;-79
2021/12/29 06:06:26;;;;;;;366.57;342.00;;;9.50;99.90;;;;;;5024917;28;20209;-80
2021/12/29 06:08:51;;;;;;;364.27;339.50;;;9.50;99.90;;;;;;5006591;28;20258;-81
2021/12/29 06:11:17;;;;;;;359.80;335.80;;;9.50;99.90;;;;;;5008160;28;20287;-80
2021/12/29 06:13:43;;;;;;;356.87;332.13;;;9.50;99.90;;;;;;5040567;28;20206;-80
2021/12/29 06:16:08;;;;;;;349.80;326.30;;;9.50;99.90;;;;;;5009401;28;20191;-81
2021/12/29 06:18:34;;;;;;;336.33;314.20;;;9.50;99.90;;;;;;4990380;28;20194;-80
2021/12/29 06:21:00;;;;;;;333.10;311.07;;;9.50;99.90;;;;;;5009674;28;20281;-81
2021/12/29 06:23:25;;;;;;;336.57;314.50;;;9.50;99.90;;;;;;5029421;28;20225;-82
2021/12/29 06:25:51;;;;;;;331.57;309.80;;;9.50;99.90;;;;;;5006686;28;20261;-81
2021/12/29 06:28:17;;;;;;;328.57;307.13;;;9.50;99.90;;;;;;5007079;28;20285;-80
2021/12/29 06:30:42;;;;;;;325.10;303.33;;;9.50;99.90;;;;;;5024635;28;20202;-81
2021/12/29 06:33:08;;;;;;;321.13;300.23;;;9.50;99.90;;;;;;5041484;28;20194;-80
2021/12/29 06:35:34;;;;;;;320.37;299.77;;;9.50;99.90;;;;;;5006854;28;20600;-79
2021/12/29 06:37:59;;;;;;;319.13;298.60;;;9.50;99.90;;;;;;5027895;28;20195;-81
2021/12/29 06:40:25;;;;;;;310.83;290.77;;;9.50;99.90;;;;;;5024672;28;20196;-80
2021/12/29 06:42:51;;;;;;;313.90;293.67;;;9.50;99.90;;;;;;5025396;28;20734;-81
2021/12/29 06:45:17;;;;;;;307.00;286.90;;;9.50;99.90;;;;;;5008253;28;20652;-80
2021/12/29 06:47:42;;;;;;;303.33;283.80;;;9.50;99.90;;;;;;5021788;28;20277;-81
2021/12/29 06:50:09;;;;;;;301.73;282.53;;;9.50;99.90;;;;;;5027010;28;20187;-81
2021/12/29 06:52:36;;;;;;;293.70;275.23;;;9.50;99.90;;;;;;5027276;28;20676;-81
2021/12/29 06:55:03;;;;;;;285.47;267.30;;;9.60;99.90;;;;;;5015611;28;20312;-79
2021/12/29 06:57:28;;;;;;;276.90;258.93;;;9.60;99.90;;;;;;5016167;28;20704;-80
2021/12/29 06:59:54;;;;;;;272.20;254.83;;;9.60;99.90;;;;;;4999648;28;20202;-83
2021/12/29 07:02:20;;;;;;;269.00;252.00;;;9.60;99.90;;;;;;5004762;28;20239;-81
2021/12/29 07:04:45;;;;;;;257.10;241.27;;;9.60;99.90;;;;;;4986657;28;20234;-81
2021/12/29 07:07:11;;;;;;;253.50;237.40;;;9.60;99.90;;;;;;4970535;28;20214;-82
2021/12/29 07:09:37;;;;;;;248.97;233.33;;;9.60;99.90;;;;;;5003083;28;20670;-81
2021/12/29 07:12:03;;;;;;;238.93;224.30;;;9.60;99.90;;;;;;5001157;28;20790;-81
2021/12/29 07:14:29;;;;;;;235.93;220.77;;;9.60;99.90;;;;;;5000935;28;20704;-80
2021/12/29 07:16:55;;;;;;;228.80;214.70;;;9.60;99.90;;;;;;4998256;28;20199;-81
2021/12/29 07:19:21;;;;;;;229.23;214.87;;;9.60;99.90;;;;;;4969880;28;20194;-82
2021/12/29 07:21:48;;;;;;;223.40;209.83;;;9.50;99.90;;;;;;4985941;28;20214;-80
2021/12/29 07:24:15;;;;;;;224.60;211.07;;;9.50;99.90;;;;;;5000653;28;20243;-80
2021/12/29 07:26:41;;;;;;;221.00;206.70;;;9.50;99.90;;;;;;4989166;28;20229;-81
2021/12/29 07:29:07;;;;;;;219.17;204.63;;;9.50;99.90;;;;;;4984312;28;20194;-82
2021/12/29 07:31:33;;;;;;;211.20;197.33;;;9.50;99.90;;;;;;5000921;28;20652;-81
2021/12/29 07:33:59;;;;;;;208.00;195.03;;;9.50;99.90;;;;;;4983923;28;20231;-81
2021/12/29 07:36:25;;;;;;;204.93;192.10;;;9.60;99.90;;;;;;5001499;28;20207;-81
2021/12/29 07:38:50;;;;;;;205.17;192.17;;;9.50;99.90;;;;;;5001583;28;20191;-81
2021/12/29 07:41:16;;;;;;;203.77;190.90;;;9.50;99.90;;;;;;4990455;28;20645;-80
2021/12/29 07:43:42;;;;;;;201.03;188.70;;;9.50;99.90;;;;;;4986444;28;20648;-82
2021/12/29 07:46:09;;;;;;;196.00;183.03;;;9.50;99.90;;;;;;5005356;28;20195;-80
2021/12/29 07:48:36;;;;;;;196.37;183.43;;;9.60;99.90;;;;;;4993231;28;20191;-81
2021/12/29 07:51:04;;;;;;;189.20;177.20;;;9.60;99.90;;;;;;4985983;28;20226;-80
2021/12/29 07:53:31;;;;;;;192.70;180.90;;;9.60;99.90;;;;;;4993655;28;20262;-80
2021/12/29 07:55:56;;;;;;;188.93;177.40;;;9.60;99.90;;;;;;5003679;28;20309;-82
2021/12/29 07:58:22;;;;;;;188.67;176.20;;;9.60;99.90;;;;;;4992314;28;20252;-81
2021/12/29 08:00:49;;;;;;;187.57;176.20;;;9.60;99.90;;;;;;4966801;28;20196;-81
2021/12/29 08:03:16;;;;;;;186.77;175.00;;;9.60;99.90;;;;;;4986757;28;20283;-81
2021/12/29 08:05:42;;;;;;;177.60;166.63;;;9.50;99.90;;;;;;4982816;28;20275;-80
2021/12/29 08:08:09;;;;;;;178.10;167.30;;;9.50;99.90;;;;;;4985568;28;20181;-81
2021/12/29 08:10:39;;;;;;;171.37;160.87;;;9.50;99.90;;;;;;4967413;28;20259;-81
2021/12/29 08:13:06;;;;;;;174.20;163.50;;;9.40;99.90;;;;;;4985118;28;20211;-81
2021/12/29 08:15:32;;;;;;;164.03;153.87;;;9.40;99.90;;;;;;4981486;28;20590;-81
2021/12/29 08:18:02;;;;;;;166.67;156.30;;;9.30;99.90;;;;;;4966443;28;20280;-79
2021/12/29 08:20:29;;;;;;;174.23;163.93;;;9.30;99.90;;;;;;4990254;28;20291;-80
2021/12/29 08:22:55;;;;;;;181.93;171.37;;;9.30;99.90;;;;;;4984252;28;20627;-82
2021/12/29 08:25:21;;;;;;;169.83;159.90;;;9.30;99.90;;;;;;4973457;28;20609;-81
2021/12/29 08:27:47;;;;;;;175.37;163.83;;;9.30;99.90;;;;;;4983197;28;20208;-80
2021/12/29 08:30:14;;;;;;;178.07;167.17;;;9.20;99.90;;;;;;4983124;28;20307;-80
2021/12/29 08:32:39;;;;;;;177.03;166.40;;;9.20;99.90;;;;;;4983129;28;20235;-82
2021/12/29 08:35:06;;;;;;;186.20;175.07;;;9.20;99.90;;;;;;4983999;28;20189;-80
2021/12/29 08:37:32;;;;;;;181.37;170.33;;;9.20;99.90;;;;;;4989921;28;20231;-80
2021/12/29 08:39:58;;;;;;;185.43;174.63;;;9.20;99.90;;;;;;4973973;28;20212;-81
2021/12/29 08:42:23;;;;;;;184.20;172.93;;;9.20;99.90;;;;;;4980837;28;20196;-82
2021/12/29 08:44:49;;;;;;;184.97;173.57;;;9.20;99.90;;;;;;4983776;28;20227;-80
2021/12/29 08:47:15;;;;;;;177.40;167.00;;;9.20;99.90;;;;;;4981855;28;20192;-80
2021/12/29 08:49:41;;;;;;;178.63;167.00;;;9.20;99.90;;;;;;4986991;28;20195;-81
2021/12/29 08:52:08;;;;;;;174.83;164.40;;;9.20;99.90;;;;;;4981365;28;20217;-81
2021/12/29 08:54:34;;;;;;;163.70;153.90;;;9.20;99.90;;;;;;4969154;28;20680;-81
2021/12/29 08:57:01;;;;;;;160.43;150.23;;;9.20;99.90;;;;;;4983432;28;20212;-79
2021/12/29 08:59:27;;;;;;;163.30;153.50;;;9.20;99.90;;;;;;5012196;28;20195;-81
2021/12/29 09:01:53;;;;;;;160.83;151.53;;;9.10;99.90;;;;;;5006422;28;20203;-81
2021/12/29 09:04:18;;;;;;;160.33;150.50;;;9.10;99.90;;;;;;4989909;28;20219;-80
2021/12/29 09:06:44;;;;;;;158.23;148.80;;;9.10;99.90;;;;;;4971535;28;20917;-81
2021/12/29 09:09:10;;;;;;;153.07;144.10;;;9.10;99.90;;;;;;4987885;28;20187;-81
2021/12/29 09:11:35;;;;;;;161.60;152.30;;;9.10;99.90;;;;;;5011478;28;20610;-80
2021/12/29 09:14:01;;;;;;;160.50;151.30;;;9.10;99.90;;;;;;4996373;28;20289;-79
2021/12/29 09:16:28;;;;;;;152.90;143.67;;;9.10;99.90;;;;;;5004095;28;20192;-80
2021/12/29 09:18:53;;;;;;;154.83;145.47;;;9.10;99.90;;;;;;4990568;28;20200;-80
2021/12/29 09:21:20;;;;;;;153.77;144.77;;;9.00;99.90;;;;;;5013381;28;20202;-80
2021/12/29 09:23:47;;;;;;;148.87;139.87;;;9.00;99.90;;;;;;5021448;28;20651;-81
2021/12/29 09:26:15;;;;;;;149.97;141.50;;;9.10;99.90;;;;;;4975221;28;20199;-82
2021/12/29 09:28:42;;;;;;;146.77;138.30;;;9.10;99.90;;;;;;5012423;28;20198;-81
2021/12/29 09:31:09;;;;;;;146.73;138.27;;;9.20;99.90;;;;;;4988645;28;20793;-80
2021/12/29 09:33:35;;;;;;;140.00;131.70;;;9.30;99.90;;;;;;4991688;28;20202;-80
2021/12/29 09:36:03;;;;;;;137.27;129.47;;;9.30;99.90;;;;;;5004605;28;20188;-81
2021/12/29 09:38:35;;;;;;;140.90;132.70;;;9.30;99.90;;;;;;4989783;28;20270;-81
2021/12/29 09:41:03;;;;;;;127.90;120.70;;;9.40;99.90;;;;;;5021177;28;20266;-81
2021/12/29 09:43:29;;;;;;;129.97;122.67;;;9.40;99.90;;;;;;4991203;28;20732;-81
2021/12/29 09:45:55;;;;;;;129.70;122.30;;;9.40;99.90;;;;;;5004826;28;20213;-81
2021/12/29 09:48:21;;;;;;;129.63;122.47;;;9.40;99.90;;;;;;5020113;28;20242;-81
2021/12/29 09:50:47;;;;;;;131.50;124.27;;;9.40;99.90;;;;;;5006271;28;20195;-81
2021/12/29 09:53:14;;;;;;;130.80;122.93;;;9.40;99.90;;;;;;4988056;28;20278;-80
2021/12/29 09:55:41;;;;;;;127.50;120.50;;;9.30;99.90;;;;;;5005042;28;20285;-81
2021/12/29 09:58:07;;;;;;;129.23;122.07;;;9.30;99.90;;;;;;5001298;28;20243;-82
2021/12/29 10:00:54;;;;;;;126.93;119.83;;;9.30;99.90;;;;;;4990795;28;20581;-81
2021/12/29 10:03:21;;;;;;;127.00;119.90;;;9.30;99.90;;;;;;5004918;28;20215;-80
2021/12/29 10:05:50;;;;;;;125.60;118.50;;;9.30;99.90;;;;;;5007323;28;20729;-81
2021/12/29 10:08:37;;;;;;;122.87;116.13;;;9.40;99.90;;;;;;5008809;28;20191;-81
2021/12/29 10:11:12;;;;;;;125.67;118.63;;;9.40;99.90;;;;;;5015019;28;20186;-81
2021/12/29 10:13:41;;;;;;;126.27;119.17;;;9.40;99.90;;;;;;5025378;28;20187;-80
2021/12/29 10:16:24;;;;;;;122.50;115.50;;;9.40;99.90;;;;;;5004544;28;20186;-79
2021/12/29 10:18:58;;;;;;;119.97;113.17;;;9.40;99.90;;;;;;5010146;28;20191;-80
2021/12/29 10:21:27;;;;;;;125.27;117.63;;;9.40;99.90;;;;;;5023672;28;20217;-82
2021/12/29 10:23:55;;;;;;;119.97;112.93;;;9.30;99.90;;;;;;4988109;28;20301;-81
2021/12/29 10:26:25;;;;;;;124.53;117.53;;;9.30;99.90;;;;;;5021086;28;20608;-82
2021/12/29 10:28:54;;;;;;;120.20;113.13;;;9.30;99.90;;;;;;5019758;28;20180;-81
2021/12/29 10:31:29;;;;;;;123.83;116.53;;;9.40;99.90;;;;;;5024882;28;20198;-81
2021/12/29 10:34:02;;;;;;;123.57;116.77;;;9.30;99.90;;;;;;5021025;28;20533;-80
2021/12/29 10:36:52;;;;;;;124.30;117.10;;;9.40;99.90;;;;;;5011906;28;20210;-82
2021/12/29 10:39:22;;;;;;;119.37;112.57;;;9.30;99.90;;;;;;5025844;28;20279;-81
2021/12/29 10:41:55;;;;;;;120.10;113.30;;;9.30;99.90;;;;;;5001698;28;20230;-80
2021/12/29 10:44:37;;;;;;;119.60;112.43;;;9.40;99.90;;;;;;5010099;28;20211;-81
2021/12/29 10:47:25;;;;;;;122.60;115.70;;;9.30;99.90;;;;;;5005557;28;20246;-80
2021/12/29 10:49:55;;;;;;;122.27;115.17;;;9.30;99.90;;;;;;5022021;28;20279;-81
2021/12/29 10:52:37;;;;;;;119.20;112.17;;;9.30;99.90;;;;;;5020428;28;20179;-81
2021/12/29 10:55:11;;;;;;;121.03;114.07;;;9.30;99.90;;;;;;5003546;28;20225;-82
2021/12/29 10:57:38;;;;;;;121.97;114.77;;;9.20;99.90;;;;;;5000757;28;20718;-81
2021/12/29 11:00:08;;;;;;;125.00;117.37;;;9.30;99.90;;;;;;5002756;28;20199;-80
2021/12/29 11:02:35;;;;;;;122.83;115.40;;;9.30;99.90;;;;;;5001488;28;20187;-80
2021/12/29 11:05:07;;;;;;;123.50;116.67;;;9.30;99.90;;;;;;5000827;28;20987;-81
2021/12/29 11:07:34;;;;;;;126.43;118.77;;;9.30;99.90;;;;;;5001618;28;20235;-79
2021/12/29 11:10:11;;;;;;;123.53;116.50;;;9.30;99.90;;;;;;4989947;28;20618;-79
2021/12/29 11:12:51;;;;;;;126.17;118.87;;;9.30;99.90;;;;;;5004746;28;20203;-81
2021/12/29 11:15:20;;;;;;;127.73;120.20;;;9.30;99.90;;;;;;5002893;28;20334;-78
2021/12/29 11:17:47;;;;;;;126.97;119.60;;;9.30;99.90;;;;;;4983548;28;20649;-80
2021/12/29 11:20:19;;;;;;;126.77;119.37;;;9.30;99.90;;;;;;4974841;28;20215;-81
2021/12/29 11:22:45;;;;;;;133.97;125.93;;;9.30;99.90;;;;;;5001701;28;20977;-80
2021/12/29 11:25:10;;;;;;;131.73;123.90;;;9.40;99.90;;;;;;4983481;28;20234;-80
2021/12/29 11:27:37;;;;;;;131.90;124.27;;;9.40;99.90;;;;;;4997537;28;20208;-81
2021/12/29 11:30:08;;;;;;;130.83;123.37;;;9.50;99.90;;;;;;4984613;28;20286;-81
2021/12/29 11:32:38;;;;;;;130.47;122.80;;;9.50;99.90;;;;;;5000144;28;20187;-80
2021/12/29 11:35:12;;;;;;;127.90;120.33;;;9.50;99.90;;;;;;4999634;28;20631;-81
2021/12/29 11:38:00;;;;;;;127.70;119.50;;;9.50;99.90;;;;;;4999881;28;20187;-80
2021/12/29 11:40:31;;;;;;;131.03;123.03;;;9.50;99.90;;;;;;5001190;28;20188;-80
2021/12/29 11:42:57;;;;;;;127.73;120.53;;;9.50;99.90;;;;;;5003603;28;20219;-81
2021/12/29 11:45:24;;;;;;;125.67;118.40;;;9.60;99.90;;;;;;5000320;28;20614;-81
2021/12/29 11:47:50;;;;;;;125.20;117.83;;;9.60;99.90;;;;;;4983295;28;20737;-80
2021/12/29 11:50:38;;;;;;;125.60;118.30;;;9.60;99.90;;;;;;4998598;28;20290;-80
2021/12/29 11:53:43;;;;;;;122.47;115.37;;;9.60;99.90;;;;;;5002441;28;20169;-79
2021/12/29 11:56:15;;;;;;;124.13;116.73;;;9.60;99.90;;;;;;5003305;28;20769;-80
2021/12/29 11:58:42;;;;;;;124.63;116.13;;;9.60;99.90;;;;;;5017380;28;20233;-82
2021/12/29 12:01:11;;;;;;;122.87;115.63;;;9.60;99.90;;;;;;5021355;28;20202;-80
2021/12/29 12:03:43;;;;;;;120.70;113.40;;;9.60;99.90;;;;;;5002983;28;20215;-81
2021/12/29 12:06:29;;;;;;;123.47;116.57;;;9.70;99.90;;;;;;5003370;28;20194;-82
2021/12/29 12:09:18;;;;;;;121.20;113.93;;;9.70;99.90;;;;;;5022134;28;20198;-79
2021/12/29 12:11:55;;;;;;;119.33;112.33;;;9.70;99.90;;;;;;5021196;28;20553;-82
2021/12/29 12:14:32;;;;;;;117.27;110.33;;;9.70;99.90;;;;;;5001743;28;20282;-81
2021/12/29 12:16:59;;;;;;;116.57;109.80;;;9.80;99.90;;;;;;5002597;28;20194;-81
2021/12/29 12:19:27;;;;;;;114.00;107.10;;;9.80;99.90;;;;;;5004674;28;20290;-80
2021/12/29 12:22:16;;;;;;;116.97;109.80;;;9.80;99.90;;;;;;5023397;28;20186;-81
2021/12/29 12:25:00;;;;;;;115.27;108.30;;;9.80;99.90;;;;;;5005607;28;20212;-81
2021/12/29 12:27:30;;;;;;;116.37;109.43;;;9.80;99.90;;;;;;5005434;28;20213;-81
2021/12/29 12:30:19;;;;;;;119.17;112.00;;;9.80;99.90;;;;;;5022819;28;20882;-81
2021/12/29 12:32:50;;;;;;;113.87;106.93;;;9.70;99.90;;;;;;5020821;28;20187;-82